sensor_id;sensor_type;location;lat;lon;timestamp;P1;durP1;ratioP1;P2;durP2;ratioP2
40621;SDS011;26324;52.040;11.528;2023-06-22T00:00:22;8.77;;;5.00;;
40621;SDS011;26324;52.040;11.528;2023-06-22T00:02:50;7.20;;;4.18;;
40621;SDS011;26324;52.040;11.528;2023-06-22T00:05:17;8.27;;;4.25;;
40621;SDS011;26324;52.040;11.528;2023-06-22T00:07:44;7.28;;;4.80;;
40621;SDS011;26324;52.040;11.528;2023-06-22T00:10:11;6.38;;;4.22;;
40621;SDS011;26324;52.040;11.528;2023-06-22T00:12:39;7.53;;;4.55;;
40621;SDS011;26324;52.040;11.528;2023-06-22T00:15:06;7.55;;;4.97;;
40621;SDS011;26324;52.040;11.528;2023-06-22T00:17:34;7.93;;;4.72;;
40621;SDS011;26324;52.040;11.528;2023-06-22T00:20:01;9.27;;;4.93;;
40621;SDS011;26324;52.040;11.528;2023-06-22T00:22:32;9.20;;;5.03;;
40621;SDS011;26324;52.040;11.528;2023-06-22T00:25:06;6.53;;;4.93;;
40621;SDS011;26324;52.040;11.528;2023-06-22T00:27:34;7.70;;;4.70;;
40621;SDS011;26324;52.040;11.528;2023-06-22T00:30:02;9.75;;;5.05;;
40621;SDS011;26324;52.040;11.528;2023-06-22T00:32:30;7.50;;;5.10;;
40621;SDS011;26324;52.040;11.528;2023-06-22T00:34:57;6.97;;;4.75;;
40621;SDS011;26324;52.040;11.528;2023-06-22T00:37:25;7.72;;;5.10;;
40621;SDS011;26324;52.040;11.528;2023-06-22T00:39:52;9.43;;;5.88;;
40621;SDS011;26324;52.040;11.528;2023-06-22T00:42:20;7.50;;;5.72;;
40621;SDS011;26324;52.040;11.528;2023-06-22T00:44:47;10.02;;;5.38;;
40621;SDS011;26324;52.040;11.528;2023-06-22T00:47:15;8.73;;;4.97;;
40621;SDS011;26324;52.040;11.528;2023-06-22T00:49:44;8.50;;;5.28;;
40621;SDS011;26324;52.040;11.528;2023-06-22T00:52:13;7.78;;;5.68;;
40621;SDS011;26324;52.040;11.528;2023-06-22T00:54:48;8.38;;;5.10;;
40621;SDS011;26324;52.040;11.528;2023-06-22T00:59:45;9.15;;;4.88;;
40621;SDS011;26324;52.040;11.528;2023-06-22T01:02:14;8.35;;;5.22;;
40621;SDS011;26324;52.040;11.528;2023-06-22T01:04:41;9.02;;;5.05;;
40621;SDS011;26324;52.040;11.528;2023-06-22T01:07:21;8.10;;;5.20;;
40621;SDS011;26324;52.040;11.528;2023-06-22T01:10:07;10.00;;;5.45;;
40621;SDS011;26324;52.040;11.528;2023-06-22T01:13:40;10.20;;;5.68;;
40621;SDS011;26324;52.040;11.528;2023-06-22T01:15:50;10.98;;;5.65;;
40621;SDS011;26324;52.040;11.528;2023-06-22T01:18:52;8.55;;;5.85;;
40621;SDS011;26324;52.040;11.528;2023-06-22T01:21:23;10.38;;;5.70;;
40621;SDS011;26324;52.040;11.528;2023-06-22T01:24:01;10.40;;;5.88;;
40621;SDS011;26324;52.040;11.528;2023-06-22T01:26:41;10.68;;;6.30;;
40621;SDS011;26324;52.040;11.528;2023-06-22T01:29:14;11.10;;;5.80;;
40621;SDS011;26324;52.040;11.528;2023-06-22T01:31:43;9.55;;;6.15;;
40621;SDS011;26324;52.040;11.528;2023-06-22T01:36:39;9.23;;;5.30;;
40621;SDS011;26324;52.040;11.528;2023-06-22T01:39:08;8.10;;;5.20;;
40621;SDS011;26324;52.040;11.528;2023-06-22T01:41:37;9.45;;;5.38;;
40621;SDS011;26324;52.040;11.528;2023-06-22T01:44:05;7.50;;;5.47;;
40621;SDS011;26324;52.040;11.528;2023-06-22T01:46:40;7.55;;;5.10;;
40621;SDS011;26324;52.040;11.528;2023-06-22T01:49:08;8.88;;;5.30;;
40621;SDS011;26324;52.040;11.528;2023-06-22T01:51:36;9.20;;;5.70;;
40621;SDS011;26324;52.040;11.528;2023-06-22T01:54:05;7.88;;;5.18;;
40621;SDS011;26324;52.040;11.528;2023-06-22T01:56:34;8.07;;;4.72;;
40621;SDS011;26324;52.040;11.528;2023-06-22T02:01:44;6.82;;;4.88;;
40621;SDS011;26324;52.040;11.528;2023-06-22T02:04:21;6.85;;;5.10;;
40621;SDS011;26324;52.040;11.528;2023-06-22T02:07:17;8.25;;;5.07;;
40621;SDS011;26324;52.040;11.528;2023-06-22T02:09:46;7.60;;;4.43;;
40621;SDS011;26324;52.040;11.528;2023-06-22T02:12:18;8.02;;;5.05;;
40621;SDS011;26324;52.040;11.528;2023-06-22T02:14:51;6.82;;;4.45;;
40621;SDS011;26324;52.040;11.528;2023-06-22T02:17:19;9.35;;;4.90;;
40621;SDS011;26324;52.040;11.528;2023-06-22T02:19:46;9.93;;;5.22;;
40621;SDS011;26324;52.040;11.528;2023-06-22T02:22:14;8.30;;;4.80;;
40621;SDS011;26324;52.040;11.528;2023-06-22T02:24:43;8.00;;;5.05;;
40621;SDS011;26324;52.040;11.528;2023-06-22T02:27:11;9.68;;;5.03;;
40621;SDS011;26324;52.040;11.528;2023-06-22T02:29:39;7.93;;;4.40;;
40621;SDS011;26324;52.040;11.528;2023-06-22T02:32:08;7.40;;;4.55;;
40621;SDS011;26324;52.040;11.528;2023-06-22T02:34:38;7.00;;;5.25;;
40621;SDS011;26324;52.040;11.528;2023-06-22T02:37:05;7.22;;;4.70;;
40621;SDS011;26324;52.040;11.528;2023-06-22T02:39:33;7.75;;;4.18;;
40621;SDS011;26324;52.040;11.528;2023-06-22T02:42:00;6.35;;;4.78;;
40621;SDS011;26324;52.040;11.528;2023-06-22T02:44:28;8.18;;;4.88;;
40621;SDS011;26324;52.040;11.528;2023-06-22T02:46:55;7.68;;;4.78;;
40621;SDS011;26324;52.040;11.528;2023-06-22T02:49:23;6.97;;;4.75;;
40621;SDS011;26324;52.040;11.528;2023-06-22T02:51:50;6.82;;;4.75;;
40621;SDS011;26324;52.040;11.528;2023-06-22T02:54:20;6.03;;;4.30;;
40621;SDS011;26324;52.040;11.528;2023-06-22T02:56:50;7.03;;;4.68;;
40621;SDS011;26324;52.040;11.528;2023-06-22T02:59:18;7.60;;;4.50;;
40621;SDS011;26324;52.040;11.528;2023-06-22T03:01:52;7.60;;;4.50;;
40621;SDS011;26324;52.040;11.528;2023-06-22T03:04:24;7.82;;;4.53;;
40621;SDS011;26324;52.040;11.528;2023-06-22T03:06:52;6.95;;;4.43;;
40621;SDS011;26324;52.040;11.528;2023-06-22T03:09:19;7.65;;;4.65;;
40621;SDS011;26324;52.040;11.528;2023-06-22T03:11:47;7.88;;;4.80;;
40621;SDS011;26324;52.040;11.528;2023-06-22T03:14:16;8.00;;;4.43;;
40621;SDS011;26324;52.040;11.528;2023-06-22T03:16:43;10.80;;;5.35;;
40621;SDS011;26324;52.040;11.528;2023-06-22T03:19:11;5.53;;;4.47;;
40621;SDS011;26324;52.040;11.528;2023-06-22T03:21:39;7.15;;;4.88;;
40621;SDS011;26324;52.040;11.528;2023-06-22T03:24:07;7.65;;;4.38;;
40621;SDS011;26324;52.040;11.528;2023-06-22T03:26:34;7.28;;;4.43;;
40621;SDS011;26324;52.040;11.528;2023-06-22T03:29:04;8.07;;;4.45;;
40621;SDS011;26324;52.040;11.528;2023-06-22T03:31:34;12.07;;;4.57;;
40621;SDS011;26324;52.040;11.528;2023-06-22T03:34:02;8.57;;;4.85;;
40621;SDS011;26324;52.040;11.528;2023-06-22T03:36:30;8.68;;;4.90;;
40621;SDS011;26324;52.040;11.528;2023-06-22T03:38:57;6.93;;;4.63;;
40621;SDS011;26324;52.040;11.528;2023-06-22T03:41:24;7.35;;;4.30;;
40621;SDS011;26324;52.040;11.528;2023-06-22T03:43:52;8.57;;;4.78;;
40621;SDS011;26324;52.040;11.528;2023-06-22T03:46:20;7.75;;;4.85;;
40621;SDS011;26324;52.040;11.528;2023-06-22T03:48:47;7.43;;;4.82;;
40621;SDS011;26324;52.040;11.528;2023-06-22T03:51:14;8.88;;;5.10;;
40621;SDS011;26324;52.040;11.528;2023-06-22T03:53:42;8.95;;;4.60;;
40621;SDS011;26324;52.040;11.528;2023-06-22T03:56:10;7.07;;;4.80;;
40621;SDS011;26324;52.040;11.528;2023-06-22T03:58:37;7.50;;;5.10;;
40621;SDS011;26324;52.040;11.528;2023-06-22T04:01:09;7.00;;;5.05;;
40621;SDS011;26324;52.040;11.528;2023-06-22T04:03:38;7.00;;;4.68;;
40621;SDS011;26324;52.040;11.528;2023-06-22T04:06:06;6.00;;;4.38;;
40621;SDS011;26324;52.040;11.528;2023-06-22T04:08:33;7.28;;;4.80;;
40621;SDS011;26324;52.040;11.528;2023-06-22T04:11:01;6.82;;;5.00;;
40621;SDS011;26324;52.040;11.528;2023-06-22T04:13:28;9.30;;;5.75;;
40621;SDS011;26324;52.040;11.528;2023-06-22T04:15:56;9.82;;;5.68;;
40621;SDS011;26324;52.040;11.528;2023-06-22T04:18:23;7.88;;;5.20;;
40621;SDS011;26324;52.040;11.528;2023-06-22T04:20:50;9.05;;;5.30;;
40621;SDS011;26324;52.040;11.528;2023-06-22T04:23:18;7.45;;;5.38;;
40621;SDS011;26324;52.040;11.528;2023-06-22T04:25:45;10.40;;;5.95;;
40621;SDS011;26324;52.040;11.528;2023-06-22T04:28:12;10.02;;;5.88;;
40621;SDS011;26324;52.040;11.528;2023-06-22T04:30:39;10.48;;;6.47;;
40621;SDS011;26324;52.040;11.528;2023-06-22T04:33:14;8.63;;;5.97;;
40621;SDS011;26324;52.040;11.528;2023-06-22T04:35:41;8.13;;;5.35;;
40621;SDS011;26324;52.040;11.528;2023-06-22T04:38:12;9.20;;;6.18;;
40621;SDS011;26324;52.040;11.528;2023-06-22T04:40:43;8.35;;;5.65;;
40621;SDS011;26324;52.040;11.528;2023-06-22T04:43:10;9.60;;;7.10;;
40621;SDS011;26324;52.040;11.528;2023-06-22T04:45:39;9.05;;;5.35;;
40621;SDS011;26324;52.040;11.528;2023-06-22T04:48:07;7.30;;;5.38;;
40621;SDS011;26324;52.040;11.528;2023-06-22T04:50:42;8.32;;;5.65;;
40621;SDS011;26324;52.040;11.528;2023-06-22T04:53:14;12.77;;;7.05;;
40621;SDS011;26324;52.040;11.528;2023-06-22T04:55:41;8.30;;;5.72;;
40621;SDS011;26324;52.040;11.528;2023-06-22T04:58:12;9.50;;;5.45;;
40621;SDS011;26324;52.040;11.528;2023-06-22T05:00:39;9.38;;;5.63;;
40621;SDS011;26324;52.040;11.528;2023-06-22T05:03:07;10.75;;;5.97;;
40621;SDS011;26324;52.040;11.528;2023-06-22T05:05:44;10.25;;;6.10;;
40621;SDS011;26324;52.040;11.528;2023-06-22T05:08:11;9.13;;;5.97;;
40621;SDS011;26324;52.040;11.528;2023-06-22T05:10:39;11.55;;;6.55;;
40621;SDS011;26324;52.040;11.528;2023-06-22T05:13:25;10.35;;;6.95;;
40621;SDS011;26324;52.040;11.528;2023-06-22T05:15:53;10.35;;;6.43;;
40621;SDS011;26324;52.040;11.528;2023-06-22T05:18:28;9.10;;;6.00;;
40621;SDS011;26324;52.040;11.528;2023-06-22T05:20:57;7.60;;;5.85;;
40621;SDS011;26324;52.040;11.528;2023-06-22T05:23:26;11.40;;;6.32;;
40621;SDS011;26324;52.040;11.528;2023-06-22T05:25:53;9.52;;;6.68;;
40621;SDS011;26324;52.040;11.528;2023-06-22T05:28:21;10.55;;;5.97;;
40621;SDS011;26324;52.040;11.528;2023-06-22T05:30:51;8.48;;;6.18;;
40621;SDS011;26324;52.040;11.528;2023-06-22T05:33:18;11.57;;;6.80;;
40621;SDS011;26324;52.040;11.528;2023-06-22T05:35:46;10.77;;;6.50;;
40621;SDS011;26324;52.040;11.528;2023-06-22T05:38:13;8.05;;;5.45;;
40621;SDS011;26324;52.040;11.528;2023-06-22T05:40:41;9.00;;;5.93;;
40621;SDS011;26324;52.040;11.528;2023-06-22T05:43:08;10.48;;;6.40;;
40621;SDS011;26324;52.040;11.528;2023-06-22T05:45:35;10.02;;;6.88;;
40621;SDS011;26324;52.040;11.528;2023-06-22T05:48:03;8.88;;;6.45;;
40621;SDS011;26324;52.040;11.528;2023-06-22T05:50:30;9.48;;;6.10;;
40621;SDS011;26324;52.040;11.528;2023-06-22T05:52:58;8.38;;;6.95;;
40621;SDS011;26324;52.040;11.528;2023-06-22T05:55:26;10.82;;;6.88;;
40621;SDS011;26324;52.040;11.528;2023-06-22T05:57:54;9.38;;;6.78;;
40621;SDS011;26324;52.040;11.528;2023-06-22T06:00:21;10.88;;;6.90;;
40621;SDS011;26324;52.040;11.528;2023-06-22T06:02:50;10.85;;;6.93;;
40621;SDS011;26324;52.040;11.528;2023-06-22T06:05:17;10.90;;;6.53;;
40621;SDS011;26324;52.040;11.528;2023-06-22T06:07:46;11.20;;;7.13;;
40621;SDS011;26324;52.040;11.528;2023-06-22T06:10:13;10.40;;;7.35;;
40621;SDS011;26324;52.040;11.528;2023-06-22T06:12:40;9.82;;;6.65;;
40621;SDS011;26324;52.040;11.528;2023-06-22T06:15:08;9.13;;;6.80;;
40621;SDS011;26324;52.040;11.528;2023-06-22T06:17:55;9.50;;;7.10;;
40621;SDS011;26324;52.040;11.528;2023-06-22T06:20:24;10.63;;;6.93;;
40621;SDS011;26324;52.040;11.528;2023-06-22T06:22:53;8.93;;;7.45;;
40621;SDS011;26324;52.040;11.528;2023-06-22T06:25:20;9.20;;;6.72;;
40621;SDS011;26324;52.040;11.528;2023-06-22T06:27:49;10.35;;;7.47;;
40621;SDS011;26324;52.040;11.528;2023-06-22T06:30:18;8.60;;;6.05;;
40621;SDS011;26324;52.040;11.528;2023-06-22T06:32:47;10.68;;;7.07;;
40621;SDS011;26324;52.040;11.528;2023-06-22T06:35:15;11.38;;;7.90;;
40621;SDS011;26324;52.040;11.528;2023-06-22T06:37:44;9.18;;;7.13;;
40621;SDS011;26324;52.040;11.528;2023-06-22T06:40:13;9.57;;;8.00;;
40621;SDS011;26324;52.040;11.528;2023-06-22T06:42:43;8.95;;;6.90;;
40621;SDS011;26324;52.040;11.528;2023-06-22T06:45:12;12.05;;;7.53;;
40621;SDS011;26324;52.040;11.528;2023-06-22T06:47:46;10.90;;;7.75;;
40621;SDS011;26324;52.040;11.528;2023-06-22T06:50:14;9.52;;;7.57;;
40621;SDS011;26324;52.040;11.528;2023-06-22T06:52:45;18.13;;;8.18;;
40621;SDS011;26324;52.040;11.528;2023-06-22T06:55:13;12.45;;;7.80;;
40621;SDS011;26324;52.040;11.528;2023-06-22T06:57:44;10.00;;;7.40;;
40621;SDS011;26324;52.040;11.528;2023-06-22T07:00:15;14.52;;;8.45;;
40621;SDS011;26324;52.040;11.528;2023-06-22T07:02:43;12.52;;;7.80;;
40621;SDS011;26324;52.040;11.528;2023-06-22T07:05:18;9.27;;;7.45;;
40621;SDS011;26324;52.040;11.528;2023-06-22T07:07:48;9.43;;;7.07;;
40621;SDS011;26324;52.040;11.528;2023-06-22T07:10:16;9.43;;;7.25;;
40621;SDS011;26324;52.040;11.528;2023-06-22T07:12:43;9.95;;;7.85;;
40621;SDS011;26324;52.040;11.528;2023-06-22T07:15:11;12.98;;;8.38;;
40621;SDS011;26324;52.040;11.528;2023-06-22T07:17:39;9.25;;;7.65;;
40621;SDS011;26324;52.040;11.528;2023-06-22T07:20:08;9.32;;;7.22;;
40621;SDS011;26324;52.040;11.528;2023-06-22T07:22:43;11.32;;;8.18;;
40621;SDS011;26324;52.040;11.528;2023-06-22T07:25:14;12.30;;;8.85;;
40621;SDS011;26324;52.040;11.528;2023-06-22T07:28:01;13.85;;;9.23;;
40621;SDS011;26324;52.040;11.528;2023-06-22T07:30:31;12.52;;;8.32;;
40621;SDS011;26324;52.040;11.528;2023-06-22T07:33:00;10.32;;;8.25;;
40621;SDS011;26324;52.040;11.528;2023-06-22T07:35:34;9.82;;;7.68;;
40621;SDS011;26324;52.040;11.528;2023-06-22T07:38:02;11.13;;;8.23;;
40621;SDS011;26324;52.040;11.528;2023-06-22T07:40:32;12.25;;;7.63;;
40621;SDS011;26324;52.040;11.528;2023-06-22T07:43:01;9.10;;;7.70;;
40621;SDS011;26324;52.040;11.528;2023-06-22T07:45:29;10.27;;;7.57;;
40621;SDS011;26324;52.040;11.528;2023-06-22T07:47:56;8.75;;;6.90;;
40621;SDS011;26324;52.040;11.528;2023-06-22T07:50:24;10.30;;;7.70;;
40621;SDS011;26324;52.040;11.528;2023-06-22T07:52:51;10.95;;;7.95;;
40621;SDS011;26324;52.040;11.528;2023-06-22T07:55:19;10.82;;;8.60;;
40621;SDS011;26324;52.040;11.528;2023-06-22T07:57:48;11.57;;;7.55;;
40621;SDS011;26324;52.040;11.528;2023-06-22T08:00:16;9.32;;;8.10;;
40621;SDS011;26324;52.040;11.528;2023-06-22T08:02:44;9.23;;;6.78;;
40621;SDS011;26324;52.040;11.528;2023-06-22T08:05:14;8.95;;;6.72;;
40621;SDS011;26324;52.040;11.528;2023-06-22T08:07:48;9.57;;;8.18;;
40621;SDS011;26324;52.040;11.528;2023-06-22T08:10:17;8.38;;;7.07;;
40621;SDS011;26324;52.040;11.528;2023-06-22T08:12:50;10.00;;;7.88;;
40621;SDS011;26324;52.040;11.528;2023-06-22T08:15:19;12.77;;;9.55;;
40621;SDS011;26324;52.040;11.528;2023-06-22T08:17:47;9.43;;;7.25;;
40621;SDS011;26324;52.040;11.528;2023-06-22T08:20:15;10.05;;;7.60;;
40621;SDS011;26324;52.040;11.528;2023-06-22T08:22:42;9.15;;;7.57;;
40621;SDS011;26324;52.040;11.528;2023-06-22T08:25:14;9.18;;;7.60;;
40621;SDS011;26324;52.040;11.528;2023-06-22T08:27:44;10.40;;;7.90;;
40621;SDS011;26324;52.040;11.528;2023-06-22T08:30:14;9.95;;;8.15;;
40621;SDS011;26324;52.040;11.528;2023-06-22T08:32:42;12.18;;;8.32;;
40621;SDS011;26324;52.040;11.528;2023-06-22T08:35:11;11.48;;;8.55;;
40621;SDS011;26324;52.040;11.528;2023-06-22T08:37:38;11.35;;;8.05;;
40621;SDS011;26324;52.040;11.528;2023-06-22T08:42:36;9.82;;;7.28;;
40621;SDS011;26324;52.040;11.528;2023-06-22T08:45:05;9.93;;;8.73;;
40621;SDS011;26324;52.040;11.528;2023-06-22T08:47:35;11.85;;;9.00;;
40621;SDS011;26324;52.040;11.528;2023-06-22T08:50:03;9.88;;;8.48;;
40621;SDS011;26324;52.040;11.528;2023-06-22T08:52:31;10.70;;;8.55;;
40621;SDS011;26324;52.040;11.528;2023-06-22T08:54:59;11.50;;;9.93;;
40621;SDS011;26324;52.040;11.528;2023-06-22T08:57:26;9.52;;;8.40;;
40621;SDS011;26324;52.040;11.528;2023-06-22T08:59:54;10.40;;;9.07;;
40621;SDS011;26324;52.040;11.528;2023-06-22T09:02:26;12.60;;;8.75;;
40621;SDS011;26324;52.040;11.528;2023-06-22T09:04:58;10.10;;;8.65;;
40621;SDS011;26324;52.040;11.528;2023-06-22T09:07:26;10.00;;;8.32;;
40621;SDS011;26324;52.040;11.528;2023-06-22T09:09:55;11.75;;;9.43;;
40621;SDS011;26324;52.040;11.528;2023-06-22T09:12:23;10.82;;;8.13;;
40621;SDS011;26324;52.040;11.528;2023-06-22T09:14:53;10.80;;;9.18;;
40621;SDS011;26324;52.040;11.528;2023-06-22T09:17:21;11.95;;;9.70;;
40621;SDS011;26324;52.040;11.528;2023-06-22T09:19:49;9.57;;;8.32;;
40621;SDS011;26324;52.040;11.528;2023-06-22T09:22:17;12.60;;;8.85;;
40621;SDS011;26324;52.040;11.528;2023-06-22T09:24:44;9.95;;;8.50;;
40621;SDS011;26324;52.040;11.528;2023-06-22T09:27:12;11.10;;;8.65;;
40621;SDS011;26324;52.040;11.528;2023-06-22T09:29:39;10.40;;;9.30;;
40621;SDS011;26324;52.040;11.528;2023-06-22T09:32:07;11.10;;;8.88;;
40621;SDS011;26324;52.040;11.528;2023-06-22T09:34:34;13.80;;;10.13;;
40621;SDS011;26324;52.040;11.528;2023-06-22T09:37:02;10.98;;;8.82;;
40621;SDS011;26324;52.040;11.528;2023-06-22T09:39:29;9.25;;;8.00;;
40621;SDS011;26324;52.040;11.528;2023-06-22T09:42:00;8.43;;;7.53;;
40621;SDS011;26324;52.040;11.528;2023-06-22T09:44:27;10.88;;;9.30;;
40621;SDS011;26324;52.040;11.528;2023-06-22T09:46:55;11.35;;;9.40;;
40621;SDS011;26324;52.040;11.528;2023-06-22T09:49:23;11.32;;;9.35;;
40621;SDS011;26324;52.040;11.528;2023-06-22T09:52:11;11.38;;;9.27;;
40621;SDS011;26324;52.040;11.528;2023-06-22T09:54:38;12.70;;;9.02;;
40621;SDS011;26324;52.040;11.528;2023-06-22T09:57:05;10.88;;;9.02;;
40621;SDS011;26324;52.040;11.528;2023-06-22T09:59:33;11.02;;;8.77;;
40621;SDS011;26324;52.040;11.528;2023-06-22T10:02:00;10.75;;;9.20;;
40621;SDS011;26324;52.040;11.528;2023-06-22T10:04:28;9.48;;;8.40;;
40621;SDS011;26324;52.040;11.528;2023-06-22T10:06:56;10.77;;;9.45;;
40621;SDS011;26324;52.040;11.528;2023-06-22T10:09:23;10.63;;;9.52;;
40621;SDS011;26324;52.040;11.528;2023-06-22T10:11:50;10.95;;;9.50;;
40621;SDS011;26324;52.040;11.528;2023-06-22T10:14:18;11.45;;;9.93;;
40621;SDS011;26324;52.040;11.528;2023-06-22T10:16:45;10.95;;;9.70;;
40621;SDS011;26324;52.040;11.528;2023-06-22T10:19:12;12.95;;;9.95;;
40621;SDS011;26324;52.040;11.528;2023-06-22T10:21:40;12.18;;;9.65;;
40621;SDS011;26324;52.040;11.528;2023-06-22T10:24:07;10.68;;;9.25;;
40621;SDS011;26324;52.040;11.528;2023-06-22T10:26:35;13.90;;;11.25;;
40621;SDS011;26324;52.040;11.528;2023-06-22T10:29:04;12.50;;;10.07;;
40621;SDS011;26324;52.040;11.528;2023-06-22T10:31:37;10.65;;;9.52;;
40621;SDS011;26324;52.040;11.528;2023-06-22T10:34:04;12.07;;;9.60;;
40621;SDS011;26324;52.040;11.528;2023-06-22T10:36:31;11.50;;;10.30;;
40621;SDS011;26324;52.040;11.528;2023-06-22T10:38:59;10.85;;;8.77;;
40621;SDS011;26324;52.040;11.528;2023-06-22T10:41:28;9.93;;;8.70;;
40621;SDS011;26324;52.040;11.528;2023-06-22T10:43:56;11.13;;;9.85;;
40621;SDS011;26324;52.040;11.528;2023-06-22T10:46:24;11.50;;;9.07;;
40621;SDS011;26324;52.040;11.528;2023-06-22T10:48:53;9.77;;;8.70;;
40621;SDS011;26324;52.040;11.528;2023-06-22T10:51:22;8.75;;;7.82;;
40621;SDS011;26324;52.040;11.528;2023-06-22T10:53:53;9.50;;;8.55;;
40621;SDS011;26324;52.040;11.528;2023-06-22T10:56:21;11.23;;;9.27;;
40621;SDS011;26324;52.040;11.528;2023-06-22T10:58:48;11.32;;;9.90;;
40621;SDS011;26324;52.040;11.528;2023-06-22T11:01:15;10.85;;;9.75;;
40621;SDS011;26324;52.040;11.528;2023-06-22T11:04:01;9.82;;;8.82;;
40621;SDS011;26324;52.040;11.528;2023-06-22T11:06:28;10.88;;;9.40;;
40621;SDS011;26324;52.040;11.528;2023-06-22T11:08:56;10.23;;;9.13;;
40621;SDS011;26324;52.040;11.528;2023-06-22T11:11:32;10.82;;;9.73;;
40621;SDS011;26324;52.040;11.528;2023-06-22T11:13:59;10.95;;;8.52;;
40621;SDS011;26324;52.040;11.528;2023-06-22T11:16:27;12.32;;;8.13;;
40621;SDS011;26324;52.040;11.528;2023-06-22T11:18:55;10.10;;;9.10;;
40621;SDS011;26324;52.040;11.528;2023-06-22T11:21:22;9.55;;;8.55;;
40621;SDS011;26324;52.040;11.528;2023-06-22T11:23:49;10.93;;;9.70;;
40621;SDS011;26324;52.040;11.528;2023-06-22T11:26:17;10.48;;;9.38;;
40621;SDS011;26324;52.040;11.528;2023-06-22T11:28:44;8.43;;;7.20;;
40621;SDS011;26324;52.040;11.528;2023-06-22T11:31:14;11.13;;;7.50;;
40621;SDS011;26324;52.040;11.528;2023-06-22T11:33:52;8.40;;;6.68;;
40621;SDS011;26324;52.040;11.528;2023-06-22T11:36:19;8.05;;;7.25;;
40621;SDS011;26324;52.040;11.528;2023-06-22T11:38:47;7.97;;;7.05;;
40621;SDS011;26324;52.040;11.528;2023-06-22T11:41:14;8.80;;;7.93;;
40621;SDS011;26324;52.040;11.528;2023-06-22T11:43:42;8.30;;;6.57;;
40621;SDS011;26324;52.040;11.528;2023-06-22T11:46:09;9.32;;;7.53;;
40621;SDS011;26324;52.040;11.528;2023-06-22T11:48:37;8.65;;;7.50;;
40621;SDS011;26324;52.040;11.528;2023-06-22T11:51:04;7.97;;;7.18;;
40621;SDS011;26324;52.040;11.528;2023-06-22T11:53:33;9.05;;;8.15;;
40621;SDS011;26324;52.040;11.528;2023-06-22T11:56:01;10.73;;;7.75;;
40621;SDS011;26324;52.040;11.528;2023-06-22T11:58:29;9.25;;;7.47;;
40621;SDS011;26324;52.040;11.528;2023-06-22T12:00:56;7.72;;;6.93;;
40621;SDS011;26324;52.040;11.528;2023-06-22T12:03:24;7.95;;;7.00;;
40621;SDS011;26324;52.040;11.528;2023-06-22T12:05:51;8.05;;;7.07;;
40621;SDS011;26324;52.040;11.528;2023-06-22T12:08:19;8.43;;;7.63;;
40621;SDS011;26324;52.040;11.528;2023-06-22T12:10:46;8.38;;;7.45;;
40621;SDS011;26324;52.040;11.528;2023-06-22T12:13:14;9.55;;;8.35;;
40621;SDS011;26324;52.040;11.528;2023-06-22T12:15:42;9.57;;;8.63;;
40621;SDS011;26324;52.040;11.528;2023-06-22T12:18:17;9.20;;;8.18;;
40621;SDS011;26324;52.040;11.528;2023-06-22T12:20:47;8.82;;;7.93;;
40621;SDS011;26324;52.040;11.528;2023-06-22T12:23:15;8.43;;;7.63;;
40621;SDS011;26324;52.040;11.528;2023-06-22T12:25:42;9.13;;;8.23;;
40621;SDS011;26324;52.040;11.528;2023-06-22T12:28:11;9.38;;;8.38;;
40621;SDS011;26324;52.040;11.528;2023-06-22T12:30:38;7.85;;;7.18;;
40621;SDS011;26324;52.040;11.528;2023-06-22T12:33:06;8.90;;;8.00;;
40621;SDS011;26324;52.040;11.528;2023-06-22T12:35:34;8.93;;;7.90;;
40621;SDS011;26324;52.040;11.528;2023-06-22T12:38:01;8.65;;;7.82;;
40621;SDS011;26324;52.040;11.528;2023-06-22T12:40:30;8.88;;;7.68;;
40621;SDS011;26324;52.040;11.528;2023-06-22T12:42:58;8.38;;;7.40;;
40621;SDS011;26324;52.040;11.528;2023-06-22T12:45:25;9.07;;;8.18;;
40621;SDS011;26324;52.040;11.528;2023-06-22T12:47:55;8.63;;;7.72;;
40621;SDS011;26324;52.040;11.528;2023-06-22T12:50:23;8.23;;;7.53;;
40621;SDS011;26324;52.040;11.528;2023-06-22T12:52:50;7.85;;;6.88;;
40621;SDS011;26324;52.040;11.528;2023-06-22T12:55:17;7.95;;;7.15;;
40621;SDS011;26324;52.040;11.528;2023-06-22T12:57:45;7.35;;;6.65;;
40621;SDS011;26324;52.040;11.528;2023-06-22T13:00:12;8.30;;;7.18;;
40621;SDS011;26324;52.040;11.528;2023-06-22T13:02:40;8.18;;;7.38;;
40621;SDS011;26324;52.040;11.528;2023-06-22T13:05:07;9.98;;;8.25;;
40621;SDS011;26324;52.040;11.528;2023-06-22T13:10:03;7.40;;;6.70;;
40621;SDS011;26324;52.040;11.528;2023-06-22T13:12:30;7.05;;;6.45;;
40621;SDS011;26324;52.040;11.528;2023-06-22T13:14:58;7.85;;;7.05;;
40621;SDS011;26324;52.040;11.528;2023-06-22T13:17:25;8.25;;;6.65;;
40621;SDS011;26324;52.040;11.528;2023-06-22T13:19:53;7.15;;;6.53;;
40621;SDS011;26324;52.040;11.528;2023-06-22T13:22:33;7.55;;;6.80;;
40621;SDS011;26324;52.040;11.528;2023-06-22T13:25:07;8.30;;;7.45;;
40621;SDS011;26324;52.040;11.528;2023-06-22T13:27:39;6.85;;;6.25;;
40621;SDS011;26324;52.040;11.528;2023-06-22T13:30:07;11.52;;;7.80;;
40621;SDS011;26324;52.040;11.528;2023-06-22T13:32:40;8.50;;;7.72;;
40621;SDS011;26324;52.040;11.528;2023-06-22T13:35:11;8.50;;;7.70;;
40621;SDS011;26324;52.040;11.528;2023-06-22T13:37:39;8.98;;;8.18;;
40621;SDS011;26324;52.040;11.528;2023-06-22T13:40:07;8.40;;;7.60;;
40621;SDS011;26324;52.040;11.528;2023-06-22T13:42:36;8.50;;;7.03;;
40621;SDS011;26324;52.040;11.528;2023-06-22T13:45:04;8.45;;;7.75;;
40621;SDS011;26324;52.040;11.528;2023-06-22T13:47:32;8.98;;;7.57;;
40621;SDS011;26324;52.040;11.528;2023-06-22T13:50:00;9.10;;;8.20;;
40621;SDS011;26324;52.040;11.528;2023-06-22T13:52:28;8.00;;;7.20;;
40621;SDS011;26324;52.040;11.528;2023-06-22T13:54:55;8.43;;;7.63;;
40621;SDS011;26324;52.040;11.528;2023-06-22T13:57:22;9.05;;;7.63;;
40621;SDS011;26324;52.040;11.528;2023-06-22T13:59:50;7.70;;;7.00;;
40621;SDS011;26324;52.040;11.528;2023-06-22T14:02:17;8.15;;;7.45;;
40621;SDS011;26324;52.040;11.528;2023-06-22T14:04:46;9.98;;;8.98;;
40621;SDS011;26324;52.040;11.528;2023-06-22T14:07:13;9.35;;;8.50;;
40621;SDS011;26324;52.040;11.528;2023-06-22T14:09:40;8.85;;;8.05;;
40621;SDS011;26324;52.040;11.528;2023-06-22T14:12:08;9.10;;;8.20;;
40621;SDS011;26324;52.040;11.528;2023-06-22T14:14:36;8.45;;;7.65;;
40621;SDS011;26324;52.040;11.528;2023-06-22T14:17:04;9.55;;;8.57;;
40621;SDS011;26324;52.040;11.528;2023-06-22T14:19:32;9.75;;;8.45;;
40621;SDS011;26324;52.040;11.528;2023-06-22T14:21:59;9.57;;;8.35;;
40621;SDS011;26324;52.040;11.528;2023-06-22T14:24:26;8.88;;;8.07;;
40621;SDS011;26324;52.040;11.528;2023-06-22T14:26:56;7.95;;;7.15;;
40621;SDS011;26324;52.040;11.528;2023-06-22T14:29:24;9.25;;;8.35;;
40621;SDS011;26324;52.040;11.528;2023-06-22T14:31:52;9.32;;;8.43;;
40621;SDS011;26324;52.040;11.528;2023-06-22T14:34:19;9.00;;;8.23;;
40621;SDS011;26324;52.040;11.528;2023-06-22T14:36:46;9.30;;;8.40;;
40621;SDS011;26324;52.040;11.528;2023-06-22T14:39:14;9.60;;;8.70;;
40621;SDS011;26324;52.040;11.528;2023-06-22T14:41:41;9.82;;;8.93;;
40621;SDS011;26324;52.040;11.528;2023-06-22T14:44:08;10.05;;;9.05;;
40621;SDS011;26324;52.040;11.528;2023-06-22T14:46:35;10.95;;;9.70;;
40621;SDS011;26324;52.040;11.528;2023-06-22T14:49:03;11.52;;;8.63;;
40621;SDS011;26324;52.040;11.528;2023-06-22T14:51:30;9.98;;;8.95;;
40621;SDS011;26324;52.040;11.528;2023-06-22T14:53:57;10.63;;;9.60;;